createdAt,value
2022-09-23T00:01:24.831Z,95302.97
2022-09-23T00:03:52.620Z,95299.78
2022-09-23T00:06:22.293Z,95286.47
2022-09-23T00:08:51.157Z,95275.56
2022-09-23T00:11:21.501Z,95272.22
2022-09-23T00:13:52.053Z,95259.72
2022-09-23T00:16:22.785Z,95249.91
2022-09-23T00:18:52.112Z,95238.38
2022-09-23T00:21:21.767Z,95226.69
2022-09-23T00:23:50.037Z,95221.72
2022-09-23T00:26:20.562Z,95210.84
2022-09-23T00:28:49.516Z,95203.31
2022-09-23T00:31:19.380Z,95195.13
2022-09-23T00:33:47.308Z,95186.00
2022-09-23T00:36:17.447Z,95179.41
2022-09-23T00:38:46.900Z,95174.59
2022-09-23T00:41:16.317Z,95162.13
2022-09-23T00:43:47.531Z,95147.72
2022-09-23T00:46:19.350Z,95133.47
2022-09-23T00:48:49.394Z,95122.06
2022-09-23T00:51:24.582Z,95114.72
2022-09-23T00:53:53.711Z,95105.44
2022-09-23T00:56:23.994Z,95097.13
2022-09-23T00:59:17.031Z,95099.00
2022-09-23T01:01:45.619Z,95084.78
2022-09-23T01:04:14.683Z,95079.03
2022-09-23T01:06:43.822Z,95065.72
2022-09-23T01:09:11.627Z,95055.81
2022-09-23T01:11:46.984Z,95037.41
2022-09-23T01:14:32.054Z,95028.44
2022-09-23T01:17:05.115Z,95021.72
2022-09-23T01:19:51.563Z,95014.19
2022-09-23T01:22:32.284Z,95020.91
2022-09-23T01:25:20.069Z,95026.00
2022-09-23T01:28:09.286Z,95022.53
2022-09-23T01:30:44.488Z,95023.59
2022-09-23T01:33:21.269Z,95005.22
2022-09-23T01:36:00.373Z,94999.59
2022-09-23T01:38:38.498Z,94986.16
2022-09-23T01:41:22.923Z,94972.06
2022-09-23T01:43:59.559Z,94962.97
2022-09-23T01:46:32.466Z,94958.16
2022-09-23T01:49:08.639Z,94942.16
2022-09-23T01:51:40.320Z,94936.41
2022-09-23T01:54:16.203Z,94929.84
2022-09-23T01:56:52.354Z,94915.63
2022-09-23T01:59:26.356Z,94918.31
2022-09-23T02:02:01.513Z,94905.06
2022-09-23T02:04:35.087Z,94884.28
2022-09-23T02:07:07.625Z,94876.91
2022-09-23T02:09:41.503Z,94860.94
2022-09-23T02:12:15.280Z,94857.09
2022-09-23T02:14:47.708Z,94840.44
2022-09-23T02:17:22.483Z,94831.34
2022-09-23T02:19:56.445Z,94817.16
2022-09-23T02:22:28.935Z,94818.91
2022-09-23T02:24:58.931Z,94808.03
2022-09-23T02:27:32.016Z,94803.06
2022-09-23T02:30:09.116Z,94798.13
2022-09-23T02:32:49.998Z,94779.75
2022-09-23T02:35:26.307Z,94773.19
2022-09-23T02:38:01.906Z,94770.00
2022-09-23T02:40:38.552Z,94767.59
2022-09-23T02:43:10.148Z,94759.28
2022-09-23T02:45:39.185Z,94753.53
2022-09-23T02:48:13.642Z,94739.19
2022-09-23T02:50:41.558Z,94739.44
2022-09-23T02:53:10.290Z,94738.53
2022-09-23T02:55:38.104Z,94738.53
2022-09-23T02:58:06.472Z,94743.63
2022-09-23T03:00:47.690Z,94736.91
2022-09-23T03:03:36.986Z,94735.31
2022-09-23T03:06:16.282Z,94736.91
2022-09-23T03:08:50.750Z,94743.75
2022-09-23T03:11:19.330Z,94732.75
2022-09-23T03:14:05.080Z,94727.00
2022-09-23T03:16:41.530Z,94716.16
2022-09-23T03:19:24.023Z,94717.22
2022-09-23T03:22:00.810Z,94714.84
2022-09-23T03:24:31.237Z,94701.44
2022-09-23T03:27:02.933Z,94695.81
2022-09-23T03:29:32.448Z,94678.94
2022-09-23T03:32:00.866Z,94680.69
2022-09-23T03:34:33.972Z,94678.44
2022-09-23T03:37:07.559Z,94670.94
2022-09-23T03:39:41.632Z,94657.66
2022-09-23T03:42:17.032Z,94658.78
2022-09-23T03:44:46.808Z,94655.28
2022-09-23T03:47:16.133Z,94657.81
2022-09-23T03:49:48.435Z,94651.13
2022-09-23T03:52:16.956Z,94642.81
2022-09-23T03:54:45.211Z,94640.41
2022-09-23T03:57:13.866Z,94638.81
2022-09-23T03:59:42.071Z,94627.19
2022-09-23T04:02:10.398Z,94622.22
2022-09-23T04:04:41.105Z,94614.84
2022-09-23T04:07:10.813Z,94608.97
2022-09-23T04:09:39.666Z,94602.44
2022-09-23T04:12:08.061Z,94593.31
2022-09-23T04:14:35.994Z,94585.81
2022-09-23T04:17:03.836Z,94578.47
2022-09-23T04:19:31.721Z,94566.81
2022-09-23T04:21:59.569Z,94562.03
2022-09-23T04:24:29.051Z,94554.53
2022-09-23T04:26:58.075Z,94541.13
2022-09-23T04:29:26.817Z,94531.09
2022-09-23T04:31:55.669Z,94528.69
2022-09-23T04:34:23.506Z,94523.75
2022-09-23T04:36:51.787Z,94533.16
2022-09-23T04:39:19.742Z,94519.78
2022-09-23T04:41:49.079Z,94512.25
2022-09-23T04:44:17.291Z,94503.97
2022-09-23T04:46:48.097Z,94507.47
2022-09-23T04:49:17.251Z,94500.63
2022-09-23T04:51:45.551Z,94506.66
2022-09-23T04:54:14.903Z,94509.22
2022-09-23T04:56:42.862Z,94508.25
2022-09-23T04:59:12.034Z,94507.31
2022-09-23T05:01:40.095Z,94506.50
2022-09-23T05:04:10.128Z,94509.06
2022-09-23T05:06:38.387Z,94516.69
2022-09-23T05:09:08.910Z,94518.28
2022-09-23T05:11:37.130Z,94527.53
2022-09-23T05:14:04.866Z,94526.72
2022-09-23T05:19:27.943Z,94521.00
2022-09-23T05:21:55.919Z,94518.44
2022-09-23T05:24:25.065Z,94517.50
2022-09-23T05:26:54.147Z,94528.47
2022-09-23T05:29:22.156Z,94530.88
2022-09-23T05:31:51.356Z,94543.59
2022-09-23T05:34:19.652Z,94532.63
2022-09-23T05:36:47.478Z,94537.59
2022-09-23T05:39:15.516Z,94539.19
2022-09-23T05:41:43.486Z,94548.41
2022-09-23T05:44:11.408Z,94553.38
2022-09-23T05:46:39.396Z,94558.31
2022-09-23T05:49:09.931Z,94572.50
2022-09-23T05:51:37.950Z,94582.25
2022-09-23T05:54:06.925Z,94603.94
2022-09-23T05:56:37.188Z,94622.13
2022-09-23T05:59:06.079Z,94640.31
2022-09-23T06:01:36.721Z,94659.47
2022-09-23T06:04:07.729Z,94677.53
2022-09-23T06:06:40.092Z,94701.63
2022-09-23T06:09:09.833Z,94738.34
2022-09-23T06:11:37.776Z,94758.81
2022-09-23T06:14:05.929Z,94797.41
2022-09-23T06:16:36.086Z,94804.66
2022-09-23T06:19:06.902Z,94826.22
2022-09-23T06:21:37.667Z,94859.44
2022-09-23T06:24:08.653Z,94886.00
2022-09-23T06:26:38.429Z,94915.06
2022-09-23T06:29:11.467Z,94944.03
2022-09-23T06:31:41.374Z,94976.47
2022-09-23T06:34:13.097Z,95010.41
2022-09-23T06:36:44.980Z,95044.47
2022-09-23T06:39:15.576Z,95074.53
2022-09-23T06:41:48.115Z,95104.44
2022-09-23T06:44:16.314Z,95132.63
2022-09-23T06:46:44.483Z,95170.09
2022-09-23T06:49:13.334Z,95199.09
2022-09-23T06:51:41.579Z,95239.94
2022-09-23T06:54:11.046Z,95275.66
2022-09-23T06:56:40.473Z,95315.72
2022-09-23T06:59:11.002Z,95345.53
2022-09-23T07:01:39.014Z,95383.84
2022-09-23T07:04:08.116Z,95417.19
2022-09-23T07:06:36.062Z,95464.00
2022-09-23T07:09:04.641Z,95493.84
2022-09-23T07:11:32.505Z,95538.25
2022-09-23T07:14:01.639Z,95568.91
2022-09-23T07:16:29.647Z,95590.47
2022-09-23T07:18:57.552Z,95629.91
2022-09-23T07:21:25.390Z,95654.03
2022-09-23T07:23:53.516Z,95685.81
2022-09-23T07:26:22.832Z,95706.53
2022-09-23T07:28:55.561Z,95737.53
2022-09-23T07:31:36.937Z,95757.47
2022-09-23T07:34:06.611Z,95789.28
2022-09-23T07:36:37.174Z,95811.78
2022-09-23T07:39:05.179Z,95840.34
2022-09-23T07:41:34.145Z,95860.16
2022-09-23T07:44:03.045Z,95897.09
2022-09-23T07:46:34.118Z,95922.97
2022-09-23T07:49:03.021Z,95945.50
2022-09-23T07:51:36.105Z,95974.78
2022-09-23T07:54:07.842Z,96010.81
2022-09-23T07:56:36.188Z,96044.25
2022-09-23T07:59:04.951Z,96082.75
2022-09-23T08:01:36.052Z,96120.28
2022-09-23T08:04:06.841Z,96172.25
2022-09-23T08:06:35.794Z,96220.63
2022-09-23T08:09:03.643Z,96275.91
2022-09-23T08:11:31.449Z,96331.16
2022-09-23T08:13:59.550Z,96390.63
2022-09-23T08:16:27.523Z,96455.41
2022-09-23T08:18:56.965Z,96505.47
2022-09-23T08:21:24.808Z,96571.00
2022-09-23T08:23:52.713Z,96628.97
2022-09-23T08:26:22.395Z,96685.03
2022-09-23T08:28:53.805Z,96765.66
2022-09-23T08:31:22.031Z,96840.38
2022-09-23T08:33:54.160Z,96913.44
2022-09-23T08:36:24.143Z,96989.97
2022-09-23T08:38:52.559Z,97068.97
2022-09-23T08:41:30.428Z,97140.66
2022-09-23T08:44:03.862Z,97210.47
2022-09-23T08:46:36.278Z,97269.44
2022-09-23T08:49:06.566Z,97320.72
2022-09-23T08:51:42.626Z,97370.50
2022-09-23T08:54:11.849Z,97423.66
2022-09-23T08:56:41.017Z,97477.66
2022-09-23T08:59:15.072Z,97518.09
2022-09-23T09:01:45.739Z,97567.06
2022-09-23T09:04:18.351Z,97601.53
2022-09-23T09:06:54.131Z,97625.09
2022-09-23T09:09:26.729Z,97647.28
2022-09-23T09:12:03.128Z,97677.66
2022-09-23T09:14:38.154Z,97723.16
2022-09-23T09:17:08.972Z,97774.69
2022-09-23T09:19:55.420Z,97842.28
2022-09-23T09:22:40.904Z,97927.78
2022-09-23T09:25:21.068Z,97997.94
2022-09-23T09:27:49.335Z,98055.44
2022-09-23T09:30:18.914Z,98124.94
2022-09-23T09:32:53.227Z,98163.72
2022-09-23T09:35:33.433Z,98216.41
2022-09-23T09:38:02.822Z,98255.38
2022-09-23T09:40:30.955Z,98293.38
2022-09-23T09:42:59.352Z,98324.69
2022-09-23T09:45:57.580Z,98365.47
2022-09-23T09:48:33.132Z,98415.50
2022-09-23T09:51:19.355Z,98462.25
2022-09-23T09:53:52.046Z,98491.84
2022-09-23T09:56:26.276Z,98529.19
2022-09-23T09:59:02.010Z,98565.66
2022-09-23T10:01:32.416Z,98604.69
2022-09-23T10:04:03.679Z,98651.47
2022-09-23T10:06:33.988Z,98698.91
2022-09-23T10:09:13.695Z,98750.63
2022-09-23T10:11:42.447Z,98800.97
2022-09-23T10:14:18.067Z,98843.28
2022-09-23T10:16:47.082Z,98897.78
2022-09-23T10:19:24.812Z,98952.25
2022-09-23T10:22:00.213Z,99013.34
2022-09-23T10:24:56.046Z,99075.66
2022-09-23T10:27:31.398Z,99135.97
2022-09-23T10:30:02.006Z,99185.31
2022-09-23T10:32:37.201Z,99236.41
2022-09-23T10:35:14.751Z,99302.94
2022-09-23T10:37:45.971Z,99351.56
2022-09-23T10:40:41.104Z,99399.19
2022-09-23T10:43:38.321Z,99466.69
2022-09-23T10:46:26.858Z,99531.50
2022-09-23T10:49:12.064Z,99557.84
2022-09-23T10:51:50.439Z,99580.88
2022-09-23T10:54:30.790Z,99641.56
2022-09-23T10:57:28.179Z,99697.03
2022-09-23T11:00:04.616Z,99777.28
2022-09-23T11:02:54.539Z,99845.63
2022-09-23T11:05:38.785Z,99906.31
2022-09-23T11:08:23.698Z,99977.44
2022-09-23T11:11:13.580Z,100021.00
2022-09-23T11:14:05.154Z,100058.66
2022-09-23T11:16:45.823Z,100096.25
2022-09-23T11:19:32.382Z,100144.25
2022-09-23T11:22:16.887Z,100175.06
2022-09-23T11:25:04.495Z,100182.72
2022-09-23T11:27:45.203Z,100205.88
2022-09-23T11:30:18.051Z,100226.25
2022-09-23T11:33:14.109Z,100228.03
2022-09-23T11:35:49.158Z,100238.28
2022-09-23T11:38:24.279Z,100246.00
2022-09-23T11:40:56.089Z,100255.41
2022-09-23T11:43:25.599Z,100216.78
2022-09-23T11:46:00.542Z,100190.22
2022-09-23T11:48:36.320Z,100171.25
2022-09-23T11:51:07.919Z,100180.75
2022-09-23T11:53:45.932Z,100174.69
2022-09-23T11:56:33.606Z,100202.16
2022-09-23T11:59:09.847Z,100247.50
2022-09-23T12:01:46.833Z,100295.47
2022-09-23T12:04:23.202Z,100315.13
2022-09-23T12:06:55.922Z,100314.19
2022-09-23T12:09:47.063Z,100332.25
2022-09-23T12:12:25.046Z,100313.34
2022-09-23T12:15:02.724Z,100304.69
2022-09-23T12:17:54.446Z,100308.97
2022-09-23T12:20:50.281Z,100342.41
2022-09-23T12:23:35.770Z,100374.97
2022-09-23T12:26:07.737Z,100418.66
2022-09-23T12:28:39.501Z,100460.63
2022-09-23T12:31:11.798Z,100495.75
2022-09-23T12:33:42.198Z,100536.22
2022-09-23T12:36:12.494Z,100528.31
2022-09-23T12:38:47.793Z,100557.50
2022-09-23T12:41:28.267Z,100571.22
2022-09-23T12:43:59.898Z,100581.56
2022-09-23T12:46:28.916Z,100578.88
2022-09-23T12:52:25.893Z,100497.28
2022-09-23T12:55:30.275Z,100469.75
2022-09-23T12:57:58.407Z,100455.97
2022-09-23T13:00:32.199Z,100464.53
2022-09-23T13:03:19.558Z,100449.06
2022-09-23T13:06:10.232Z,100449.91
2022-09-23T13:08:40.316Z,100423.25
2022-09-23T13:11:19.577Z,100408.63
2022-09-23T13:16:45.564Z,100367.41
2022-09-23T13:19:50.063Z,100341.63
2022-09-23T13:22:42.421Z,100302.13
2022-09-23T13:25:20.551Z,100278.03
2022-09-23T13:27:54.869Z,100276.25
2022-09-23T13:30:26.749Z,100287.34
2022-09-23T13:33:05.673Z,100293.34
2022-09-23T13:35:38.011Z,100298.47
2022-09-23T13:38:19.288Z,100307.03
2022-09-23T13:40:49.319Z,100348.97
2022-09-23T13:43:23.151Z,100390.06
2022-09-23T13:45:52.117Z,100432.00
2022-09-23T13:48:23.817Z,100457.75
2022-09-23T13:50:54.396Z,100498.97
2022-09-23T13:53:27.772Z,100550.53
2022-09-23T13:56:04.441Z,100583.06
2022-09-23T13:58:33.948Z,100613.06
2022-09-23T14:01:02.844Z,100607.84
2022-09-23T14:03:36.479Z,100602.69
2022-09-23T14:06:08.631Z,100630.94
2022-09-23T14:08:40.131Z,100670.47
2022-09-23T14:11:08.157Z,100618.91
2022-09-23T14:13:44.378Z,100639.47
2022-09-23T14:16:15.750Z,100688.31
2022-09-23T14:18:46.726Z,100712.38
2022-09-23T14:21:28.891Z,100731.25
2022-09-23T14:23:58.151Z,100753.59
2022-09-23T14:26:27.167Z,100755.25
2022-09-23T14:28:55.801Z,100721.75
2022-09-23T14:31:24.603Z,100662.44
2022-09-23T14:33:52.633Z,100632.25
2022-09-23T14:36:43.260Z,100624.53
2022-09-23T14:39:13.634Z,100588.41
2022-09-23T14:41:45.287Z,100512.03
2022-09-23T14:44:21.672Z,100462.94
2022-09-23T14:46:57.947Z,100413.16
2022-09-23T14:49:26.252Z,100384.72
2022-09-23T14:51:56.062Z,100344.47
2022-09-23T14:54:33.514Z,100316.16
2022-09-23T14:57:02.275Z,100291.38
2022-09-23T14:59:35.645Z,100249.25
2022-09-23T15:02:24.228Z,100201.22
2022-09-23T15:04:53.844Z,100170.25
2022-09-23T15:07:23.160Z,100149.78
2022-09-23T15:09:53.097Z,100131.72
2022-09-23T15:12:23.278Z,100112.81
2022-09-23T15:14:54.520Z,100071.56
2022-09-23T15:17:32.517Z,100063.13
2022-09-23T15:20:03.456Z,100045.91
2022-09-23T15:22:31.442Z,100040.88
2022-09-23T15:25:17.404Z,100021.91
2022-09-23T15:27:57.629Z,100015.84
2022-09-23T15:30:27.503Z,100024.50
2022-09-23T15:32:58.834Z,100017.59
2022-09-23T15:35:29.586Z,99985.88
2022-09-23T15:38:00.426Z,99963.56
2022-09-23T15:40:55.085Z,99949.88
2022-09-23T15:43:25.064Z,99937.78
2022-09-23T15:46:00.367Z,99916.44
2022-09-23T15:48:32.573Z,99885.66
2022-09-23T15:51:09.783Z,99865.94
2022-09-23T15:53:38.079Z,99840.28
2022-09-23T15:56:07.647Z,99812.00
2022-09-23T15:58:35.721Z,99793.25
2022-09-23T16:01:04.929Z,99751.34
2022-09-23T16:03:33.038Z,99679.41
2022-09-23T16:06:03.181Z,99644.41
2022-09-23T16:08:33.357Z,99588.91
2022-09-23T16:11:01.515Z,99570.19
2022-09-23T16:13:30.929Z,99528.19
2022-09-23T16:15:58.812Z,99483.88
2022-09-23T16:18:26.649Z,99420.59
2022-09-23T16:20:54.757Z,99383.16
2022-09-23T16:23:34.537Z,99343.09
2022-09-23T16:26:08.195Z,99285.94
2022-09-23T16:28:37.779Z,99250.13
2022-09-23T16:31:06.195Z,99205.75
2022-09-23T16:33:33.992Z,99170.84
2022-09-23T16:36:02.172Z,99141.03
2022-09-23T16:38:30.250Z,99109.56
2022-09-23T16:41:00.462Z,99070.31
2022-09-23T16:43:29.221Z,99029.38
2022-09-23T16:45:58.765Z,98986.81
2022-09-23T16:48:26.710Z,98955.38
2022-09-23T16:50:54.641Z,98919.69
2022-09-23T16:53:23.525Z,98888.28
2022-09-23T16:55:53.420Z,98861.09
2022-09-23T16:58:21.312Z,98825.31
2022-09-23T17:01:06.553Z,98799.81
2022-09-23T17:03:41.422Z,98766.59
2022-09-23T17:06:13.082Z,98737.66
2022-09-23T17:08:41.725Z,98713.94
2022-09-23T17:11:11.617Z,98688.44
2022-09-23T17:13:40.490Z,98658.72
2022-09-23T17:16:08.301Z,98636.75
2022-09-23T17:18:38.922Z,98607.72
2022-09-23T17:21:08.511Z,98587.47
2022-09-23T17:23:37.543Z,98556.09
2022-09-23T17:26:09.606Z,98538.28
2022-09-23T17:28:37.773Z,98517.03
2022-09-23T17:31:07.490Z,98514.69
2022-09-23T17:33:38.902Z,98506.91
2022-09-23T17:36:09.101Z,98476.25
2022-09-23T17:38:39.179Z,98463.63
2022-09-23T17:41:08.429Z,98442.44
2022-09-23T17:43:36.530Z,98414.41
2022-09-23T17:46:06.787Z,98396.72
2022-09-23T17:48:37.718Z,98372.91
2022-09-23T17:51:07.271Z,98360.19
2022-09-23T17:53:37.167Z,98339.69
2022-09-23T17:56:06.833Z,98332.16
2022-09-23T17:58:36.759Z,98313.44
2022-09-23T18:01:05.533Z,98300.84
2022-09-23T18:03:33.586Z,98286.47
2022-09-23T18:06:14.204Z,98271.13
2022-09-23T18:08:43.638Z,98255.94
2022-09-23T18:11:13.273Z,98245.00
2022-09-23T18:13:41.297Z,98220.28
2022-09-23T18:16:09.153Z,98219.56
2022-09-23T18:18:37.049Z,98200.03
2022-09-23T18:21:06.713Z,98182.97
2022-09-23T18:23:37.464Z,98158.50
2022-09-23T18:26:05.670Z,98143.34
2022-09-23T18:28:34.964Z,98139.31
2022-09-23T18:31:02.938Z,98118.84
2022-09-23T18:33:30.734Z,98114.59
2022-09-23T18:36:01.119Z,98094.97
2022-09-23T18:38:29.095Z,98083.31
2022-09-23T18:41:00.292Z,98061.22
2022-09-23T18:43:38.945Z,98050.28
2022-09-23T18:46:12.878Z,98035.81
2022-09-23T18:48:58.790Z,98023.22
2022-09-23T18:51:29.163Z,98011.38
2022-09-23T18:53:58.484Z,98000.53
2022-09-23T18:56:33.518Z,97981.84
2022-09-23T18:59:01.833Z,97970.78
2022-09-23T19:01:29.866Z,97963.28
2022-09-23T19:04:02.060Z,97940.25
2022-09-23T19:06:32.835Z,97937.75
2022-09-23T19:09:00.623Z,97930.25
2022-09-23T19:11:30.172Z,97909.00
2022-09-23T19:14:00.290Z,97909.09
2022-09-23T19:16:28.549Z,97899.69
2022-09-23T19:18:56.325Z,97891.38
2022-09-23T19:21:24.675Z,97894.78
2022-09-23T19:23:54.253Z,97884.66
2022-09-23T19:26:25.024Z,97873.75
2022-09-23T19:28:55.657Z,97862.72
2022-09-23T19:31:25.334Z,97860.22
2022-09-23T19:33:56.639Z,97855.19
2022-09-23T19:36:26.796Z,97849.19
2022-09-23T19:38:55.687Z,97838.16
2022-09-23T19:41:23.991Z,97836.63
2022-09-23T19:43:55.518Z,97830.75
2022-09-23T19:46:23.670Z,97824.66
2022-09-23T19:48:51.721Z,97829.13
2022-09-23T19:51:19.679Z,97823.13
2022-09-23T19:53:47.683Z,97813.84
2022-09-23T19:56:17.795Z,97808.78
2022-09-23T19:58:48.170Z,97807.16
2022-09-23T20:01:17.941Z,97799.53
2022-09-23T20:03:46.876Z,97797.06
2022-09-23T20:06:15.421Z,97791.06
2022-09-23T20:08:43.901Z,97798.00
2022-09-23T20:11:14.287Z,97795.41
2022-09-23T20:13:44.430Z,97797.19
2022-09-23T20:16:15.623Z,97788.63
2022-09-23T20:18:46.327Z,97783.53
2022-09-23T20:21:16.020Z,97778.50
2022-09-23T20:23:44.159Z,97780.25
2022-09-23T20:26:29.584Z,97770.88
2022-09-23T20:29:00.901Z,97768.41
2022-09-23T20:31:31.774Z,97763.47
2022-09-23T20:34:05.294Z,97757.47
2022-09-23T20:36:35.368Z,97757.56
2022-09-23T20:39:06.276Z,97742.22
2022-09-23T20:41:37.397Z,97739.75
2022-09-23T20:44:07.898Z,97734.69
2022-09-23T20:46:36.316Z,97725.41
2022-09-23T20:49:07.877Z,97728.94
2022-09-23T20:51:35.933Z,97723.78
2022-09-23T20:54:04.226Z,97723.09
2022-09-23T20:56:32.321Z,97715.44
2022-09-23T20:59:00.956Z,97700.06
2022-09-23T21:01:29.545Z,97696.78
2022-09-23T21:03:57.382Z,97694.31
2022-09-23T21:06:26.572Z,97678.25
2022-09-23T21:08:55.866Z,97678.38
2022-09-23T21:11:24.341Z,97670.75
2022-09-23T21:13:53.004Z,97658.06
2022-09-23T21:16:22.845Z,97650.44
2022-09-23T21:18:51.536Z,97645.41
2022-09-23T21:21:22.421Z,97646.34
2022-09-23T21:23:52.335Z,97638.84
2022-09-23T21:26:22.624Z,97627.78
2022-09-23T21:28:52.350Z,97621.00
2022-09-23T21:31:25.395Z,97626.28
2022-09-23T21:33:55.488Z,97617.72
2022-09-23T21:36:24.768Z,97618.75
2022-09-23T21:38:55.409Z,97617.03
2022-09-23T21:41:23.891Z,97611.03
2022-09-23T21:43:52.076Z,97614.53
2022-09-23T21:46:21.475Z,97601.75
2022-09-23T21:48:53.324Z,97598.50
2022-09-23T21:51:25.493Z,97589.13
2022-09-23T21:53:56.941Z,97585.81
2022-09-23T21:56:26.449Z,97580.78
2022-09-23T21:58:55.315Z,97577.38
2022-09-23T22:01:25.396Z,97582.53
2022-09-23T22:06:38.295Z,97576.69
2022-09-23T22:09:08.847Z,97577.63
2022-09-23T22:11:56.327Z,97572.47
2022-09-23T22:14:25.972Z,97568.34
2022-09-23T22:16:55.890Z,97565.75
2022-09-23T22:19:26.085Z,97564.00
2022-09-23T22:21:56.130Z,97568.34
2022-09-23T22:24:24.257Z,97568.47
2022-09-23T22:26:52.327Z,97560.72
2022-09-23T22:29:37.988Z,97552.28
2022-09-23T22:32:39.336Z,97556.75
2022-09-23T22:35:08.346Z,97544.91
2022-09-23T22:37:38.760Z,97541.50
2022-09-23T22:40:08.554Z,97539.88
2022-09-23T22:42:37.521Z,97536.47
2022-09-23T22:45:06.309Z,97526.41
2022-09-23T22:47:37.103Z,97524.63
2022-09-23T22:50:06.001Z,97523.91
2022-09-23T22:52:34.234Z,97515.47
2022-09-23T22:55:03.647Z,97511.25
2022-09-23T22:57:31.547Z,97496.84
2022-09-23T22:59:59.435Z,97490.16
2022-09-23T23:02:27.596Z,97482.66
2022-09-23T23:04:56.156Z,97466.59
2022-09-23T23:07:24.616Z,97461.69
2022-09-23T23:09:52.610Z,97432.88
2022-09-23T23:12:22.360Z,97419.53
2022-09-23T23:14:51.132Z,97407.94
2022-09-23T23:17:19.115Z,97385.91
2022-09-23T23:19:47.455Z,97369.03
2022-09-23T23:22:15.228Z,97358.13
2022-09-23T23:24:43.135Z,97356.63
2022-09-23T23:27:10.988Z,97340.47
2022-09-23T23:29:40.282Z,97339.75
2022-09-23T23:32:09.905Z,97332.16
2022-09-23T23:34:38.291Z,97328.88
2022-09-23T23:37:06.484Z,97316.22
2022-09-23T23:39:35.193Z,97306.03
2022-09-23T23:42:04.921Z,97301.00
2022-09-23T23:44:34.681Z,97294.34
2022-09-23T23:47:04.444Z,97287.66
2022-09-23T23:49:33.095Z,97276.66
2022-09-23T23:52:01.052Z,97265.81
2022-09-23T23:54:29.051Z,97254.91
2022-09-23T23:56:57.416Z,97247.28
2022-09-23T23:59:26.123Z,97240.59
